sensor_id;sensor_type;location;lat;lon;timestamp;P1;durP1;ratioP1;P2;durP2;ratioP2
68718;SDS011;55696;52.138;5.444;2023-07-24T00:02:25;6.07;;;3.00;;
68718;SDS011;55696;52.138;5.444;2023-07-24T00:04:52;6.40;;;3.30;;
68718;SDS011;55696;52.138;5.444;2023-07-24T00:07:20;5.13;;;3.10;;
68718;SDS011;55696;52.138;5.444;2023-07-24T00:09:46;5.82;;;2.90;;
68718;SDS011;55696;52.138;5.444;2023-07-24T00:12:14;5.72;;;2.85;;
68718;SDS011;55696;52.138;5.444;2023-07-24T00:14:40;5.85;;;3.10;;
68718;SDS011;55696;52.138;5.444;2023-07-24T00:17:07;6.50;;;3.50;;
68718;SDS011;55696;52.138;5.444;2023-07-24T00:19:34;6.90;;;3.22;;
68718;SDS011;55696;52.138;5.444;2023-07-24T00:22:01;5.68;;;3.70;;
68718;SDS011;55696;52.138;5.444;2023-07-24T00:24:29;6.30;;;3.15;;
68718;SDS011;55696;52.138;5.444;2023-07-24T00:26:56;5.57;;;3.60;;
68718;SDS011;55696;52.138;5.444;2023-07-24T00:29:23;5.73;;;3.13;;
68718;SDS011;55696;52.138;5.444;2023-07-24T00:31:50;6.38;;;3.30;;
68718;SDS011;55696;52.138;5.444;2023-07-24T00:34:17;8.77;;;3.22;;
68718;SDS011;55696;52.138;5.444;2023-07-24T00:36:43;5.53;;;3.50;;
68718;SDS011;55696;52.138;5.444;2023-07-24T00:39:10;5.80;;;3.20;;
68718;SDS011;55696;52.138;5.444;2023-07-24T00:41:38;5.10;;;3.20;;
68718;SDS011;55696;52.138;5.444;2023-07-24T00:44:04;6.65;;;3.47;;
68718;SDS011;55696;52.138;5.444;2023-07-24T00:46:31;5.93;;;3.45;;
68718;SDS011;55696;52.138;5.444;2023-07-24T00:49:00;5.32;;;3.42;;
68718;SDS011;55696;52.138;5.444;2023-07-24T00:51:30;6.40;;;3.55;;
68718;SDS011;55696;52.138;5.444;2023-07-24T00:54:00;6.77;;;3.87;;
68718;SDS011;55696;52.138;5.444;2023-07-24T00:56:28;5.88;;;3.63;;
68718;SDS011;55696;52.138;5.444;2023-07-24T00:58:58;6.75;;;4.18;;
68718;SDS011;55696;52.138;5.444;2023-07-24T01:01:26;5.72;;;4.03;;
68718;SDS011;55696;52.138;5.444;2023-07-24T01:03:53;5.50;;;3.90;;
68718;SDS011;55696;52.138;5.444;2023-07-24T01:06:24;6.37;;;3.57;;
68718;SDS011;55696;52.138;5.444;2023-07-24T01:08:51;6.10;;;3.55;;
68718;SDS011;55696;52.138;5.444;2023-07-24T01:11:19;5.70;;;3.70;;
68718;SDS011;55696;52.138;5.444;2023-07-24T01:14:33;6.07;;;3.75;;
68718;SDS011;55696;52.138;5.444;2023-07-24T01:16:47;6.07;;;3.65;;
68718;SDS011;55696;52.138;5.444;2023-07-24T01:19:20;7.07;;;3.70;;
68718;SDS011;55696;52.138;5.444;2023-07-24T01:25:00;7.88;;;3.90;;
68718;SDS011;55696;52.138;5.444;2023-07-24T01:27:32;7.32;;;3.90;;
68718;SDS011;55696;52.138;5.444;2023-07-24T01:29:59;6.43;;;3.50;;
68718;SDS011;55696;52.138;5.444;2023-07-24T01:32:26;6.43;;;4.43;;
68718;SDS011;55696;52.138;5.444;2023-07-24T01:34:53;5.70;;;3.28;;
68718;SDS011;55696;52.138;5.444;2023-07-24T01:37:20;5.95;;;4.07;;
68718;SDS011;55696;52.138;5.444;2023-07-24T01:39:50;5.53;;;3.83;;
68718;SDS011;55696;52.138;5.444;2023-07-24T01:42:19;5.57;;;3.83;;
68718;SDS011;55696;52.138;5.444;2023-07-24T01:44:50;5.40;;;3.23;;
68718;SDS011;55696;52.138;5.444;2023-07-24T01:47:21;6.05;;;3.55;;
68718;SDS011;55696;52.138;5.444;2023-07-24T01:49:48;6.90;;;4.20;;
68718;SDS011;55696;52.138;5.444;2023-07-24T01:52:15;6.80;;;4.18;;
68718;SDS011;55696;52.138;5.444;2023-07-24T01:54:42;6.35;;;3.90;;
68718;SDS011;55696;52.138;5.444;2023-07-24T01:57:12;5.73;;;3.57;;
68718;SDS011;55696;52.138;5.444;2023-07-24T01:59:38;5.68;;;4.03;;
68718;SDS011;55696;52.138;5.444;2023-07-24T02:02:05;5.55;;;3.58;;
68718;SDS011;55696;52.138;5.444;2023-07-24T02:04:32;9.55;;;3.45;;
68718;SDS011;55696;52.138;5.444;2023-07-24T02:06:59;5.70;;;3.58;;
68718;SDS011;55696;52.138;5.444;2023-07-24T02:09:26;5.73;;;3.70;;
68718;SDS011;55696;52.138;5.444;2023-07-24T02:11:53;7.05;;;4.10;;
68718;SDS011;55696;52.138;5.444;2023-07-24T02:14:20;6.60;;;4.00;;
68718;SDS011;55696;52.138;5.444;2023-07-24T02:16:47;5.97;;;4.10;;
68718;SDS011;55696;52.138;5.444;2023-07-24T02:19:14;10.35;;;4.30;;
68718;SDS011;55696;52.138;5.444;2023-07-24T02:21:40;6.77;;;4.23;;
68718;SDS011;55696;52.138;5.444;2023-07-24T02:24:07;7.10;;;4.50;;
68718;SDS011;55696;52.138;5.444;2023-07-24T02:26:34;7.50;;;4.38;;
68718;SDS011;55696;52.138;5.444;2023-07-24T02:29:01;6.07;;;3.90;;
68718;SDS011;55696;52.138;5.444;2023-07-24T02:31:28;5.97;;;4.20;;
68718;SDS011;55696;52.138;5.444;2023-07-24T02:33:55;6.37;;;4.30;;
68718;SDS011;55696;52.138;5.444;2023-07-24T02:36:22;5.80;;;4.20;;
68718;SDS011;55696;52.138;5.444;2023-07-24T02:38:49;6.28;;;4.45;;
68718;SDS011;55696;52.138;5.444;2023-07-24T02:41:16;7.50;;;4.28;;
68718;SDS011;55696;52.138;5.444;2023-07-24T02:43:43;7.28;;;4.55;;
68718;SDS011;55696;52.138;5.444;2023-07-24T02:46:09;6.20;;;3.93;;
68718;SDS011;55696;52.138;5.444;2023-07-24T02:48:36;6.35;;;3.70;;
68718;SDS011;55696;52.138;5.444;2023-07-24T02:51:03;4.97;;;3.50;;
68718;SDS011;55696;52.138;5.444;2023-07-24T02:53:30;6.22;;;3.65;;
68718;SDS011;55696;52.138;5.444;2023-07-24T02:55:57;6.10;;;3.83;;
68718;SDS011;55696;52.138;5.444;2023-07-24T02:58:24;7.67;;;3.80;;
68718;SDS011;55696;52.138;5.444;2023-07-24T03:00:51;6.68;;;3.58;;
68718;SDS011;55696;52.138;5.444;2023-07-24T03:03:17;6.32;;;4.25;;
68718;SDS011;55696;52.138;5.444;2023-07-24T03:05:44;6.75;;;4.57;;
68718;SDS011;55696;52.138;5.444;2023-07-24T03:08:11;6.90;;;4.70;;
68718;SDS011;55696;52.138;5.444;2023-07-24T03:10:41;7.13;;;4.80;;
68718;SDS011;55696;52.138;5.444;2023-07-24T03:13:09;7.07;;;4.40;;
68718;SDS011;55696;52.138;5.444;2023-07-24T03:15:36;6.03;;;4.50;;
68718;SDS011;55696;52.138;5.444;2023-07-24T03:18:03;6.70;;;4.13;;
68718;SDS011;55696;52.138;5.444;2023-07-24T03:20:30;8.70;;;4.70;;
68718;SDS011;55696;52.138;5.444;2023-07-24T03:22:56;6.20;;;4.43;;
68718;SDS011;55696;52.138;5.444;2023-07-24T03:25:23;6.25;;;4.18;;
68718;SDS011;55696;52.138;5.444;2023-07-24T03:27:50;6.82;;;4.50;;
68718;SDS011;55696;52.138;5.444;2023-07-24T03:30:18;6.45;;;4.20;;
68718;SDS011;55696;52.138;5.444;2023-07-24T03:32:46;6.75;;;4.30;;
68718;SDS011;55696;52.138;5.444;2023-07-24T03:35:13;5.80;;;3.67;;
68718;SDS011;55696;52.138;5.444;2023-07-24T03:37:40;6.57;;;3.95;;
68718;SDS011;55696;52.138;5.444;2023-07-24T03:40:07;6.35;;;3.75;;
68718;SDS011;55696;52.138;5.444;2023-07-24T03:42:34;5.88;;;3.33;;
68718;SDS011;55696;52.138;5.444;2023-07-24T03:45:01;5.72;;;3.30;;
68718;SDS011;55696;52.138;5.444;2023-07-24T03:47:28;6.30;;;3.27;;
68718;SDS011;55696;52.138;5.444;2023-07-24T03:49:55;5.07;;;3.00;;
68718;SDS011;55696;52.138;5.444;2023-07-24T03:52:22;7.75;;;4.22;;
68718;SDS011;55696;52.138;5.444;2023-07-24T03:54:49;6.75;;;4.28;;
68718;SDS011;55696;52.138;5.444;2023-07-24T03:57:16;8.18;;;4.38;;
68718;SDS011;55696;52.138;5.444;2023-07-24T03:59:43;7.03;;;4.13;;
68718;SDS011;55696;52.138;5.444;2023-07-24T04:02:10;7.28;;;4.55;;
68718;SDS011;55696;52.138;5.444;2023-07-24T04:04:37;7.00;;;4.38;;
68718;SDS011;55696;52.138;5.444;2023-07-24T04:07:04;6.97;;;4.03;;
68718;SDS011;55696;52.138;5.444;2023-07-24T04:09:31;6.22;;;3.92;;
68718;SDS011;55696;52.138;5.444;2023-07-24T04:11:58;6.50;;;4.10;;
68718;SDS011;55696;52.138;5.444;2023-07-24T04:14:25;7.55;;;4.18;;
68718;SDS011;55696;52.138;5.444;2023-07-24T04:16:52;9.63;;;5.00;;
68718;SDS011;55696;52.138;5.444;2023-07-24T04:19:20;8.40;;;3.90;;
68718;SDS011;55696;52.138;5.444;2023-07-24T04:21:46;7.95;;;4.20;;
68718;SDS011;55696;52.138;5.444;2023-07-24T04:24:13;6.63;;;3.83;;
68718;SDS011;55696;52.138;5.444;2023-07-24T04:26:40;7.03;;;4.35;;
68718;SDS011;55696;52.138;5.444;2023-07-24T04:29:08;6.93;;;4.03;;
68718;SDS011;55696;52.138;5.444;2023-07-24T04:31:35;7.82;;;4.32;;
68718;SDS011;55696;52.138;5.444;2023-07-24T04:34:02;7.75;;;4.22;;
68718;SDS011;55696;52.138;5.444;2023-07-24T04:36:29;8.93;;;3.90;;
68718;SDS011;55696;52.138;5.444;2023-07-24T04:38:56;7.70;;;4.63;;
68718;SDS011;55696;52.138;5.444;2023-07-24T04:41:23;7.22;;;4.45;;
68718;SDS011;55696;52.138;5.444;2023-07-24T04:43:50;6.78;;;4.53;;
68718;SDS011;55696;52.138;5.444;2023-07-24T04:46:17;7.38;;;4.43;;
68718;SDS011;55696;52.138;5.444;2023-07-24T04:48:44;7.40;;;4.60;;
68718;SDS011;55696;52.138;5.444;2023-07-24T04:51:10;8.45;;;4.35;;
68718;SDS011;55696;52.138;5.444;2023-07-24T04:53:37;7.97;;;4.30;;
68718;SDS011;55696;52.138;5.444;2023-07-24T04:56:04;8.52;;;4.50;;
68718;SDS011;55696;52.138;5.444;2023-07-24T04:58:31;8.00;;;4.60;;
68718;SDS011;55696;52.138;5.444;2023-07-24T05:01:02;9.07;;;4.40;;
68718;SDS011;55696;52.138;5.444;2023-07-24T05:03:32;8.45;;;4.90;;
68718;SDS011;55696;52.138;5.444;2023-07-24T05:05:59;9.68;;;4.82;;
68718;SDS011;55696;52.138;5.444;2023-07-24T05:08:25;9.73;;;5.38;;
68718;SDS011;55696;52.138;5.444;2023-07-24T05:10:56;11.15;;;5.38;;
68718;SDS011;55696;52.138;5.444;2023-07-24T05:13:23;9.03;;;5.30;;
68718;SDS011;55696;52.138;5.444;2023-07-24T05:15:51;8.18;;;4.90;;
68718;SDS011;55696;52.138;5.444;2023-07-24T05:18:18;10.85;;;5.55;;
68718;SDS011;55696;52.138;5.444;2023-07-24T05:20:48;7.70;;;4.78;;
68718;SDS011;55696;52.138;5.444;2023-07-24T05:23:17;8.63;;;5.10;;
68718;SDS011;55696;52.138;5.444;2023-07-24T05:25:44;12.43;;;5.33;;
68718;SDS011;55696;52.138;5.444;2023-07-24T05:28:11;9.38;;;4.93;;
68718;SDS011;55696;52.138;5.444;2023-07-24T05:30:38;10.82;;;6.25;;
68718;SDS011;55696;52.138;5.444;2023-07-24T05:33:04;8.98;;;5.25;;
68718;SDS011;55696;52.138;5.444;2023-07-24T05:35:31;10.32;;;5.28;;
68718;SDS011;55696;52.138;5.444;2023-07-24T05:37:58;11.37;;;5.83;;
68718;SDS011;55696;52.138;5.444;2023-07-24T05:40:25;9.50;;;5.78;;
68718;SDS011;55696;52.138;5.444;2023-07-24T05:42:52;10.32;;;5.32;;
68718;SDS011;55696;52.138;5.444;2023-07-24T05:45:19;9.48;;;5.30;;
68718;SDS011;55696;52.138;5.444;2023-07-24T05:47:45;10.13;;;5.32;;
68718;SDS011;55696;52.138;5.444;2023-07-24T05:50:12;7.90;;;4.97;;
68718;SDS011;55696;52.138;5.444;2023-07-24T05:52:40;11.00;;;5.72;;
68718;SDS011;55696;52.138;5.444;2023-07-24T05:55:07;10.43;;;6.13;;
68718;SDS011;55696;52.138;5.444;2023-07-24T05:57:34;11.52;;;5.35;;
68718;SDS011;55696;52.138;5.444;2023-07-24T06:00:05;13.63;;;5.80;;
68718;SDS011;55696;52.138;5.444;2023-07-24T06:02:41;12.53;;;5.20;;
68718;SDS011;55696;52.138;5.444;2023-07-24T06:05:08;8.32;;;4.60;;
68718;SDS011;55696;52.138;5.444;2023-07-24T06:07:35;10.82;;;5.10;;
68718;SDS011;55696;52.138;5.444;2023-07-24T06:10:01;11.88;;;5.45;;
68718;SDS011;55696;52.138;5.444;2023-07-24T06:12:28;10.35;;;5.18;;
68718;SDS011;55696;52.138;5.444;2023-07-24T06:14:55;9.53;;;4.90;;
68718;SDS011;55696;52.138;5.444;2023-07-24T06:17:22;11.35;;;5.32;;
68718;SDS011;55696;52.138;5.444;2023-07-24T06:19:49;11.38;;;5.60;;
68718;SDS011;55696;52.138;5.444;2023-07-24T06:22:16;10.70;;;5.38;;
68718;SDS011;55696;52.138;5.444;2023-07-24T06:24:42;11.23;;;5.75;;
68718;SDS011;55696;52.138;5.444;2023-07-24T06:27:09;11.53;;;5.00;;
68718;SDS011;55696;52.138;5.444;2023-07-24T06:29:36;8.63;;;5.15;;
68718;SDS011;55696;52.138;5.444;2023-07-24T06:32:05;11.07;;;5.07;;
68718;SDS011;55696;52.138;5.444;2023-07-24T06:34:33;9.43;;;5.05;;
68718;SDS011;55696;52.138;5.444;2023-07-24T06:37:00;10.00;;;5.30;;
68718;SDS011;55696;52.138;5.444;2023-07-24T06:39:46;8.57;;;4.77;;
68718;SDS011;55696;52.138;5.444;2023-07-24T06:42:13;10.30;;;4.75;;
68718;SDS011;55696;52.138;5.444;2023-07-24T06:44:39;10.32;;;5.38;;
68718;SDS011;55696;52.138;5.444;2023-07-24T06:47:06;10.60;;;4.78;;
68718;SDS011;55696;52.138;5.444;2023-07-24T06:49:33;11.57;;;5.18;;
68718;SDS011;55696;52.138;5.444;2023-07-24T06:52:00;9.53;;;4.50;;
68718;SDS011;55696;52.138;5.444;2023-07-24T06:54:27;10.98;;;4.78;;
68718;SDS011;55696;52.138;5.444;2023-07-24T06:56:54;8.80;;;4.35;;
68718;SDS011;55696;52.138;5.444;2023-07-24T06:59:21;11.07;;;4.30;;
68718;SDS011;55696;52.138;5.444;2023-07-24T07:01:47;11.65;;;4.82;;
68718;SDS011;55696;52.138;5.444;2023-07-24T07:04:14;8.23;;;4.17;;
68718;SDS011;55696;52.138;5.444;2023-07-24T07:06:42;14.07;;;4.75;;
68718;SDS011;55696;52.138;5.444;2023-07-24T07:09:09;7.35;;;4.00;;
68718;SDS011;55696;52.138;5.444;2023-07-24T07:11:36;10.45;;;4.88;;
68718;SDS011;55696;52.138;5.444;2023-07-24T07:14:03;9.10;;;4.68;;
68718;SDS011;55696;52.138;5.444;2023-07-24T07:16:30;7.30;;;4.20;;
68718;SDS011;55696;52.138;5.444;2023-07-24T07:18:57;11.38;;;4.57;;
68718;SDS011;55696;52.138;5.444;2023-07-24T07:21:24;14.10;;;5.20;;
68718;SDS011;55696;52.138;5.444;2023-07-24T07:23:51;12.73;;;4.80;;
68718;SDS011;55696;52.138;5.444;2023-07-24T07:26:18;8.02;;;4.20;;
68718;SDS011;55696;52.138;5.444;2023-07-24T07:28:44;9.93;;;4.47;;
68718;SDS011;55696;52.138;5.444;2023-07-24T07:31:11;10.82;;;4.65;;
68718;SDS011;55696;52.138;5.444;2023-07-24T07:33:38;10.63;;;4.88;;
68718;SDS011;55696;52.138;5.444;2023-07-24T07:36:05;10.93;;;4.75;;
68718;SDS011;55696;52.138;5.444;2023-07-24T07:38:32;9.23;;;4.90;;
68718;SDS011;55696;52.138;5.444;2023-07-24T07:41:03;9.97;;;4.80;;
68718;SDS011;55696;52.138;5.444;2023-07-24T07:43:31;11.40;;;5.05;;
68718;SDS011;55696;52.138;5.444;2023-07-24T07:45:58;12.65;;;4.68;;
68718;SDS011;55696;52.138;5.444;2023-07-24T07:48:25;9.10;;;4.95;;
68718;SDS011;55696;52.138;5.444;2023-07-24T07:50:52;9.48;;;5.20;;
68718;SDS011;55696;52.138;5.444;2023-07-24T07:53:20;13.77;;;5.60;;
68718;SDS011;55696;52.138;5.444;2023-07-24T07:55:54;10.18;;;4.57;;
68718;SDS011;55696;52.138;5.444;2023-07-24T07:58:26;13.60;;;5.63;;
68718;SDS011;55696;52.138;5.444;2023-07-24T08:00:53;10.38;;;4.65;;
68718;SDS011;55696;52.138;5.444;2023-07-24T08:03:20;9.68;;;5.13;;
68718;SDS011;55696;52.138;5.444;2023-07-24T08:05:47;9.40;;;4.70;;
68718;SDS011;55696;52.138;5.444;2023-07-24T08:08:14;8.25;;;4.45;;
68718;SDS011;55696;52.138;5.444;2023-07-24T08:10:40;12.45;;;4.72;;
68718;SDS011;55696;52.138;5.444;2023-07-24T08:13:07;11.55;;;4.60;;
68718;SDS011;55696;52.138;5.444;2023-07-24T08:15:35;10.60;;;5.35;;
68718;SDS011;55696;52.138;5.444;2023-07-24T08:18:03;10.17;;;4.37;;
68718;SDS011;55696;52.138;5.444;2023-07-24T08:20:32;9.65;;;4.60;;
68718;SDS011;55696;52.138;5.444;2023-07-24T08:23:01;9.20;;;4.25;;
68718;SDS011;55696;52.138;5.444;2023-07-24T08:25:28;10.07;;;4.63;;
68718;SDS011;55696;52.138;5.444;2023-07-24T08:27:55;10.82;;;4.45;;
68718;SDS011;55696;52.138;5.444;2023-07-24T08:30:31;11.37;;;4.93;;
68718;SDS011;55696;52.138;5.444;2023-07-24T08:32:58;9.25;;;4.90;;
68718;SDS011;55696;52.138;5.444;2023-07-24T08:35:26;10.07;;;4.72;;
68718;SDS011;55696;52.138;5.444;2023-07-24T08:37:53;12.60;;;5.20;;
68718;SDS011;55696;52.138;5.444;2023-07-24T08:40:19;11.50;;;5.35;;
68718;SDS011;55696;52.138;5.444;2023-07-24T08:42:48;10.17;;;4.97;;
68718;SDS011;55696;52.138;5.444;2023-07-24T08:45:16;10.40;;;4.35;;
68718;SDS011;55696;52.138;5.444;2023-07-24T08:47:44;11.07;;;4.53;;
68718;SDS011;55696;52.138;5.444;2023-07-24T08:50:12;11.48;;;4.90;;
68718;SDS011;55696;52.138;5.444;2023-07-24T08:52:41;7.38;;;4.07;;
68718;SDS011;55696;52.138;5.444;2023-07-24T08:55:10;12.10;;;5.50;;
68718;SDS011;55696;52.138;5.444;2023-07-24T08:57:37;12.90;;;4.20;;
68718;SDS011;55696;52.138;5.444;2023-07-24T09:00:04;11.10;;;4.68;;
68718;SDS011;55696;52.138;5.444;2023-07-24T09:02:32;11.77;;;4.85;;
68718;SDS011;55696;52.138;5.444;2023-07-24T09:05:00;10.20;;;5.30;;
68718;SDS011;55696;52.138;5.444;2023-07-24T09:07:28;10.50;;;4.93;;
68718;SDS011;55696;52.138;5.444;2023-07-24T09:09:56;8.85;;;4.40;;
68718;SDS011;55696;52.138;5.444;2023-07-24T09:12:23;8.20;;;4.45;;
68718;SDS011;55696;52.138;5.444;2023-07-24T09:15:00;9.63;;;4.82;;
68718;SDS011;55696;52.138;5.444;2023-07-24T09:17:32;8.18;;;4.80;;
68718;SDS011;55696;52.138;5.444;2023-07-24T09:19:59;8.23;;;5.10;;
68718;SDS011;55696;52.138;5.444;2023-07-24T09:22:28;7.68;;;4.75;;
68718;SDS011;55696;52.138;5.444;2023-07-24T09:24:55;9.40;;;5.07;;
68718;SDS011;55696;52.138;5.444;2023-07-24T09:27:27;9.15;;;4.50;;
68718;SDS011;55696;52.138;5.444;2023-07-24T09:29:58;10.63;;;4.82;;
68718;SDS011;55696;52.138;5.444;2023-07-24T09:32:25;8.20;;;4.23;;
68718;SDS011;55696;52.138;5.444;2023-07-24T09:34:53;10.80;;;4.78;;
68718;SDS011;55696;52.138;5.444;2023-07-24T09:37:33;8.60;;;5.25;;
68718;SDS011;55696;52.138;5.444;2023-07-24T09:40:03;10.07;;;5.55;;
68718;SDS011;55696;52.138;5.444;2023-07-24T09:42:31;8.55;;;4.95;;
68718;SDS011;55696;52.138;5.444;2023-07-24T09:44:59;10.03;;;5.13;;
68718;SDS011;55696;52.138;5.444;2023-07-24T09:47:27;8.20;;;4.53;;
68718;SDS011;55696;52.138;5.444;2023-07-24T09:50:14;10.85;;;4.85;;
68718;SDS011;55696;52.138;5.444;2023-07-24T09:52:41;7.97;;;4.47;;
68718;SDS011;55696;52.138;5.444;2023-07-24T09:55:17;10.65;;;5.05;;
68718;SDS011;55696;52.138;5.444;2023-07-24T09:57:48;8.17;;;4.30;;
68718;SDS011;55696;52.138;5.444;2023-07-24T10:00:18;7.18;;;4.70;;
68718;SDS011;55696;52.138;5.444;2023-07-24T10:02:47;8.60;;;5.35;;
68718;SDS011;55696;52.138;5.444;2023-07-24T10:05:14;9.85;;;4.85;;
68718;SDS011;55696;52.138;5.444;2023-07-24T10:07:42;10.18;;;5.35;;
68718;SDS011;55696;52.138;5.444;2023-07-24T10:10:09;8.53;;;4.23;;
68718;SDS011;55696;52.138;5.444;2023-07-24T10:12:36;7.13;;;4.43;;
68718;SDS011;55696;52.138;5.444;2023-07-24T10:15:04;8.77;;;4.30;;
68718;SDS011;55696;52.138;5.444;2023-07-24T10:17:39;8.07;;;4.53;;
68718;SDS011;55696;52.138;5.444;2023-07-24T10:20:08;9.38;;;4.50;;
68718;SDS011;55696;52.138;5.444;2023-07-24T10:22:36;7.77;;;3.97;;
68718;SDS011;55696;52.138;5.444;2023-07-24T10:25:08;10.43;;;5.13;;
68718;SDS011;55696;52.138;5.444;2023-07-24T10:27:39;8.52;;;4.55;;
68718;SDS011;55696;52.138;5.444;2023-07-24T10:30:10;7.47;;;4.03;;
68718;SDS011;55696;52.138;5.444;2023-07-24T10:33:13;9.10;;;4.15;;
68718;SDS011;55696;52.138;5.444;2023-07-24T10:35:45;9.57;;;4.33;;
68718;SDS011;55696;52.138;5.444;2023-07-24T10:38:14;8.50;;;3.80;;
68718;SDS011;55696;52.138;5.444;2023-07-24T10:40:43;6.93;;;3.58;;
68718;SDS011;55696;52.138;5.444;2023-07-24T10:43:12;7.07;;;3.65;;
68718;SDS011;55696;52.138;5.444;2023-07-24T10:45:41;12.60;;;5.07;;
68718;SDS011;55696;52.138;5.444;2023-07-24T10:48:08;9.40;;;4.20;;
68718;SDS011;55696;52.138;5.444;2023-07-24T10:50:38;7.20;;;3.97;;
68718;SDS011;55696;52.138;5.444;2023-07-24T10:53:06;7.40;;;4.22;;
68718;SDS011;55696;52.138;5.444;2023-07-24T10:55:34;8.70;;;3.80;;
68718;SDS011;55696;52.138;5.444;2023-07-24T10:58:01;9.77;;;3.90;;
68718;SDS011;55696;52.138;5.444;2023-07-24T11:00:27;7.77;;;3.57;;
68718;SDS011;55696;52.138;5.444;2023-07-24T11:02:54;7.78;;;4.18;;
68718;SDS011;55696;52.138;5.444;2023-07-24T11:05:22;7.70;;;4.13;;
68718;SDS011;55696;52.138;5.444;2023-07-24T11:07:50;11.10;;;3.80;;
68718;SDS011;55696;52.138;5.444;2023-07-24T11:10:20;6.80;;;3.67;;
68718;SDS011;55696;52.138;5.444;2023-07-24T11:12:48;8.20;;;4.33;;
68718;SDS011;55696;52.138;5.444;2023-07-24T11:15:23;8.90;;;4.00;;
68718;SDS011;55696;52.138;5.444;2023-07-24T11:17:52;12.18;;;4.50;;
68718;SDS011;55696;52.138;5.444;2023-07-24T11:20:19;9.13;;;4.57;;
68718;SDS011;55696;52.138;5.444;2023-07-24T11:22:46;8.88;;;4.07;;
68718;SDS011;55696;52.138;5.444;2023-07-24T11:25:13;8.53;;;4.27;;
68718;SDS011;55696;52.138;5.444;2023-07-24T11:27:41;8.93;;;4.40;;
68718;SDS011;55696;52.138;5.444;2023-07-24T11:30:11;9.70;;;3.95;;
68718;SDS011;55696;52.138;5.444;2023-07-24T11:32:39;11.93;;;5.32;;
68718;SDS011;55696;52.138;5.444;2023-07-24T11:35:07;6.07;;;4.10;;
68718;SDS011;55696;52.138;5.444;2023-07-24T11:37:35;9.20;;;4.70;;
68718;SDS011;55696;52.138;5.444;2023-07-24T11:40:03;11.15;;;4.53;;
68718;SDS011;55696;52.138;5.444;2023-07-24T11:42:42;8.75;;;5.13;;
68718;SDS011;55696;52.138;5.444;2023-07-24T11:45:09;10.20;;;5.25;;
68718;SDS011;55696;52.138;5.444;2023-07-24T11:47:43;9.98;;;5.28;;
68718;SDS011;55696;52.138;5.444;2023-07-24T11:50:14;10.13;;;5.23;;
68718;SDS011;55696;52.138;5.444;2023-07-24T11:52:46;9.43;;;5.90;;
68718;SDS011;55696;52.138;5.444;2023-07-24T11:55:15;10.68;;;6.35;;
68718;SDS011;55696;52.138;5.444;2023-07-24T11:57:43;15.20;;;6.97;;
68718;SDS011;55696;52.138;5.444;2023-07-24T12:00:21;10.70;;;6.40;;
68718;SDS011;55696;52.138;5.444;2023-07-24T12:02:49;13.17;;;7.60;;
68718;SDS011;55696;52.138;5.444;2023-07-24T12:05:16;11.60;;;6.93;;
68718;SDS011;55696;52.138;5.444;2023-07-24T12:07:44;11.52;;;7.18;;
68718;SDS011;55696;52.138;5.444;2023-07-24T12:10:12;11.90;;;7.05;;
68718;SDS011;55696;52.138;5.444;2023-07-24T12:12:50;12.23;;;7.30;;
68718;SDS011;55696;52.138;5.444;2023-07-24T12:15:17;14.43;;;7.40;;
68718;SDS011;55696;52.138;5.444;2023-07-24T12:17:45;11.63;;;6.50;;
68718;SDS011;55696;52.138;5.444;2023-07-24T12:20:12;10.65;;;6.93;;
68718;SDS011;55696;52.138;5.444;2023-07-24T12:22:39;12.65;;;6.47;;
68718;SDS011;55696;52.138;5.444;2023-07-24T12:25:06;11.02;;;6.55;;
68718;SDS011;55696;52.138;5.444;2023-07-24T12:27:33;10.30;;;5.70;;
68718;SDS011;55696;52.138;5.444;2023-07-24T12:30:00;10.13;;;5.72;;
68718;SDS011;55696;52.138;5.444;2023-07-24T12:32:27;9.48;;;5.70;;
68718;SDS011;55696;52.138;5.444;2023-07-24T12:34:54;9.88;;;5.80;;
68718;SDS011;55696;52.138;5.444;2023-07-24T12:37:21;11.30;;;5.43;;
68718;SDS011;55696;52.138;5.444;2023-07-24T12:39:48;10.33;;;5.50;;
68718;SDS011;55696;52.138;5.444;2023-07-24T12:42:15;10.15;;;5.03;;
68718;SDS011;55696;52.138;5.444;2023-07-24T12:44:43;8.55;;;5.60;;
68718;SDS011;55696;52.138;5.444;2023-07-24T12:47:10;8.27;;;5.50;;
68718;SDS011;55696;52.138;5.444;2023-07-24T12:49:38;9.65;;;5.40;;
68718;SDS011;55696;52.138;5.444;2023-07-24T12:52:05;8.50;;;5.27;;
68718;SDS011;55696;52.138;5.444;2023-07-24T12:54:32;9.00;;;5.43;;
68718;SDS011;55696;52.138;5.444;2023-07-24T12:57:18;10.25;;;6.20;;
68718;SDS011;55696;52.138;5.444;2023-07-24T12:59:45;9.93;;;5.40;;
68718;SDS011;55696;52.138;5.444;2023-07-24T13:02:12;8.55;;;4.63;;
68718;SDS011;55696;52.138;5.444;2023-07-24T13:04:39;11.10;;;4.40;;
68718;SDS011;55696;52.138;5.444;2023-07-24T13:07:06;8.38;;;4.50;;
68718;SDS011;55696;52.138;5.444;2023-07-24T13:09:34;8.98;;;4.47;;
68718;SDS011;55696;52.138;5.444;2023-07-24T13:12:00;12.93;;;4.65;;
68718;SDS011;55696;52.138;5.444;2023-07-24T13:14:27;9.18;;;4.38;;
68718;SDS011;55696;52.138;5.444;2023-07-24T13:16:54;9.63;;;5.30;;
68718;SDS011;55696;52.138;5.444;2023-07-24T13:19:21;10.18;;;5.28;;
68718;SDS011;55696;52.138;5.444;2023-07-24T13:21:48;10.63;;;5.60;;
68718;SDS011;55696;52.138;5.444;2023-07-24T13:24:15;12.35;;;5.72;;
68718;SDS011;55696;52.138;5.444;2023-07-24T13:26:42;12.88;;;5.80;;
68718;SDS011;55696;52.138;5.444;2023-07-24T13:29:09;10.97;;;5.57;;
68718;SDS011;55696;52.138;5.444;2023-07-24T13:31:36;9.32;;;5.72;;
68718;SDS011;55696;52.138;5.444;2023-07-24T13:34:03;8.68;;;5.60;;
68718;SDS011;55696;52.138;5.444;2023-07-24T13:36:30;9.15;;;5.55;;
68718;SDS011;55696;52.138;5.444;2023-07-24T13:38:57;7.82;;;5.45;;
68718;SDS011;55696;52.138;5.444;2023-07-24T13:41:23;11.70;;;6.70;;
68718;SDS011;55696;52.138;5.444;2023-07-24T13:43:50;9.65;;;5.88;;
68718;SDS011;55696;52.138;5.444;2023-07-24T13:46:17;14.85;;;6.25;;
68718;SDS011;55696;52.138;5.444;2023-07-24T13:48:44;12.73;;;5.85;;
68718;SDS011;55696;52.138;5.444;2023-07-24T13:51:11;11.60;;;6.68;;
68718;SDS011;55696;52.138;5.444;2023-07-24T13:53:38;13.63;;;6.03;;
68718;SDS011;55696;52.138;5.444;2023-07-24T13:56:05;10.00;;;6.30;;
68718;SDS011;55696;52.138;5.444;2023-07-24T13:58:32;8.63;;;6.13;;
68718;SDS011;55696;52.138;5.444;2023-07-24T14:00:59;8.60;;;4.78;;
68718;SDS011;55696;52.138;5.444;2023-07-24T14:03:26;9.45;;;4.80;;
68718;SDS011;55696;52.138;5.444;2023-07-24T14:05:55;8.17;;;4.80;;
68718;SDS011;55696;52.138;5.444;2023-07-24T14:08:23;7.38;;;4.82;;
68718;SDS011;55696;52.138;5.444;2023-07-24T14:10:50;8.57;;;4.65;;
68718;SDS011;55696;52.138;5.444;2023-07-24T14:13:17;9.10;;;4.70;;
68718;SDS011;55696;52.138;5.444;2023-07-24T14:15:44;8.45;;;4.40;;
68718;SDS011;55696;52.138;5.444;2023-07-24T14:18:11;9.33;;;4.57;;
68718;SDS011;55696;52.138;5.444;2023-07-24T14:20:38;6.22;;;5.00;;
68718;SDS011;55696;52.138;5.444;2023-07-24T14:23:06;7.90;;;4.75;;
68718;SDS011;55696;52.138;5.444;2023-07-24T14:25:34;9.38;;;4.80;;
68718;SDS011;55696;52.138;5.444;2023-07-24T14:28:01;9.00;;;5.15;;
68718;SDS011;55696;52.138;5.444;2023-07-24T14:30:28;6.73;;;4.40;;
68718;SDS011;55696;52.138;5.444;2023-07-24T14:32:55;8.38;;;4.60;;
68718;SDS011;55696;52.138;5.444;2023-07-24T14:35:22;8.82;;;4.68;;
68718;SDS011;55696;52.138;5.444;2023-07-24T14:37:49;9.95;;;4.80;;
68718;SDS011;55696;52.138;5.444;2023-07-24T14:40:16;5.65;;;3.50;;
68718;SDS011;55696;52.138;5.444;2023-07-24T14:42:43;4.83;;;2.47;;
68718;SDS011;55696;52.138;5.444;2023-07-24T14:45:10;4.90;;;2.38;;
68718;SDS011;55696;52.138;5.444;2023-07-24T14:47:37;7.90;;;3.35;;
68718;SDS011;55696;52.138;5.444;2023-07-24T14:50:04;5.40;;;2.63;;
68718;SDS011;55696;52.138;5.444;2023-07-24T14:52:31;7.10;;;3.03;;